»·PEaware :: N74KW KAWO-KBLI

N74KW :: KAWO-KBLI

FLIGHT INFORMATION

Flight Status: Arrived
Operator: Privately registered:
United States
More flights under this callsign
Pilot: Charles C. (26995)
Aircraft: MCDONNELL-DOUGLAS SKYTRAIN C-47
(DC3)
More flights by this aircraft type
Origin: KAWO Arlington Mun
United States
Destination: KBLI Bellingham Intl
United States
More flights between these airports :: More routes between these airports
Route: ARLINGTON 2 UCAKI
File this flight plan on PilotEdge
Remarks:
Altitude:
(Current/Filed)
4,000ft
Speed:
(Current/Filed)
150kts
Departed: 31-Aug-20 08:09 AM
Arrived: 31-Aug-20 08:43 AM
Distance/Time
Traveled:
41nm/0:34
Distance/Time
To Go:
Arrived

Flight Plot

Page will automatically refresh every two minutes.

Flight plan parsing failed; only flown route is shown


Map Options




Map Legend


Flown Route
Filed Route
Departure Airport
Arrival Airport
Navaid (VOR, NDB)
Fix

Horizontal Profiles

Position Reports

Time Latitude Longitude Heading Altitude Ground
Speed
31-Aug-20 07:59 33.673801 -117.865795 117 64ft 0kts
31-Aug-20 08:00 33.673801 -117.865795 117 64ft 0kts
31-Aug-20 08:01 33.673801 -117.865795 117 64ft 0kts
31-Aug-20 08:02 33.673801 -117.865795 117 64ft 0kts
31-Aug-20 08:03 33.673801 -117.865795 117 64ft 0kts
31-Aug-20 08:04 33.673801 -117.865795 117 64ft 0kts
31-Aug-20 08:05 48.159861 -122.153715 267 140ft 0kts
31-Aug-20 08:06 48.159861 -122.153715 267 140ft 0kts
31-Aug-20 08:07 48.157803 -122.154199 180 138ft 19kts
31-Aug-20 08:08 48.155485 -122.155202 274 135ft 5kts
31-Aug-20 08:09 48.158111 -122.161774 306 137ft 63kts
31-Aug-20 08:10 48.176780 -122.193251 351 902ft 99kts
31-Aug-20 08:11 48.182869 -122.232019 267 1400ft 120kts
31-Aug-20 08:12 48.177803 -122.280632 266 2108ft 112kts
31-Aug-20 08:13 48.175089 -122.329758 267 2690ft 115kts
31-Aug-20 08:14 48.175601 -122.375059 324 3298ft 105kts
31-Aug-20 08:14 48.195116 -122.383650 343 3720ft 102kts
31-Aug-20 08:16 48.228904 -122.399379 344 4007ft 128kts
31-Aug-20 08:17 48.265025 -122.416141 344 4001ft 140kts
31-Aug-20 08:18 48.302942 -122.433766 344 4001ft 141kts
31-Aug-20 08:18 48.333967 -122.448199 344 4017ft 137kts
31-Aug-20 08:20 48.376250 -122.467913 344 4024ft 136kts
31-Aug-20 08:20 48.406560 -122.482060 344 4026ft 136kts
31-Aug-20 08:21 48.442871 -122.499037 344 4027ft 136kts
31-Aug-20 08:22 48.479180 -122.516039 344 4029ft 136kts
31-Aug-20 08:23 48.515513 -122.533087 345 4025ft 136kts
31-Aug-20 08:24 48.552134 -122.550282 346 4019ft 137kts
31-Aug-20 08:25 48.588916 -122.567579 347 4011ft 139kts
31-Aug-20 08:26 48.626418 -122.585231 348 4001ft 143kts
31-Aug-20 08:27 48.665232 -122.603531 347 3994ft 148kts
31-Aug-20 08:28 48.705065 -122.622353 347 3992ft 151kts
31-Aug-20 08:29 48.744520 -122.640609 337 3986ft 140kts
31-Aug-20 08:30 48.779980 -122.658229 347 3930ft 135kts
31-Aug-20 08:31 48.816351 -122.660052 17 3506ft 135kts
31-Aug-20 08:32 48.853307 -122.650663 9 3009ft 132kts
31-Aug-20 08:33 48.889461 -122.642393 15 2279ft 132kts
31-Aug-20 08:34 48.918144 -122.615950 69 1910ft 112kts
31-Aug-20 08:35 48.928811 -122.577669 127 1957ft 96kts
31-Aug-20 08:36 48.913526 -122.544011 123 1998ft 100kts
31-Aug-20 08:37 48.887133 -122.539557 171 1810ft 89kts
31-Aug-20 08:38 48.862866 -122.538966 174 1330ft 84kts
31-Aug-20 08:39 48.839674 -122.537582 180 879ft 84kts
31-Aug-20 08:40 48.816221 -122.537827 183 477ft 84kts
31-Aug-20 08:41 48.795578 -122.537536 180 163ft 48kts
31-Aug-20 08:42 48.791535 -122.535315 45 161ft 17kts
31-Aug-20 08:43 48.791533 -122.534631 179 161ft 0kts
31-Aug-20 08:44 48.791533 -122.534631 179 161ft 0kts
31-Aug-20 08:45 48.791533 -122.534631 179 161ft 0kts
31-Aug-20 08:46 48.791533 -122.534631 179 161ft 0kts
31-Aug-20 08:47 48.791533 -122.534631 179 161ft 0kts
31-Aug-20 08:48 48.791533 -122.534631 179 161ft 0kts
31-Aug-20 08:49 48.791533 -122.534631 179 161ft 0kts
31-Aug-20 08:50 48.791533 -122.534631 179 161ft 0kts
31-Aug-20 08:51 48.791533 -122.534631 179 161ft 0kts
31-Aug-20 08:52 48.791533 -122.534631 179 161ft 0kts
31-Aug-20 08:53 48.791533 -122.534631 179 161ft 0kts

Navigation Log

Ident Type
Flight plan parsing failed, navigation log unavailable